Track Шупикова Дарья

Time Latitude Longitude Accuracy (66% radius in meters) Altitude (meters) Speed (km/hour) Bearing (degrees) Battery (%) GPS flag
09:28:34 60.370921 29.556358 12 62 0 214.93731689453 44 1 delete
09:28:23 60.370942 29.556390 12 61 0 22.107343673706 44 1 delete
09:28:21 60.370948 29.556371 6 64 0 22.107343673706 44 1 delete
09:28:09 60.370956 29.556279 12 93 0 22.107343673706 44 1 delete
09:27:58 60.370957 29.556294 8 98 0 22.107343673706 44 1 delete
09:27:56 60.370950 29.556321 12 93 0 22.107343673706 44 1 delete
09:27:47 60.370919 29.556349 12 80 0.16602018475533 28.904846191406 44 1 delete
09:27:44 60.370876 29.556319 8 79 0 212.94648742676 44 1 delete
09:27:35 60.370874 29.556309 8 89 0 212.94648742676 44 1 delete
09:27:31 60.370907 29.556299 12 81 0 212.94648742676 44 1 delete
09:27:18 60.370916 29.556272 12 74 0 220.87982177734 44 1 delete
09:27:04 60.370920 29.556301 6 76 0 48.507541656494 44 1 delete
09:27:00 60.370920 29.556319 12 76 0 48.507541656494 44 1 delete
09:26:51 60.370926 29.556403 8 81 0 48.507541656494 44 1 delete
09:26:38 60.370933 29.556395 12 79 0 207.43377685547 44 1 delete
09:26:32 60.370937 29.556404 6 79 0.14819903671741 33.746757507324 44 1 delete
09:26:25 60.370907 29.556350 8 78 0 174.02822875977 44 1 delete
09:26:15 60.370918 29.556315 6 73 0 210.90966796875 44 1 delete
09:26:12 60.370920 29.556323 12 73 0.05164885148406 210.90966796875 44 1 delete
09:25:59 60.370957 29.556340 8 75 0 40.940715789795 44 1 delete
09:25:46 60.370969 29.556375 12 62 0.0708919018507 219.91079711914 44 1 delete
09:25:34 60.370983 29.556414 6 70 0 15.907075881958 44 1 delete
09:25:21 60.370947 29.556378 6 75 0 71.013336181641 44 1 delete
09:25:06 60.370961 29.556346 12 69 0 71.013336181641 44 1 delete
09:24:59 60.370961 29.556348 12 60 0 71.013336181641 44 1 delete
09:24:53 60.370978 29.556370 8 65 0 71.013336181641 44 1 delete
09:24:40 60.370965 29.556308 8 65 0 214.3334197998 44 1 delete
09:24:28 60.371005 29.556311 6 61 0 217.81123352051 44 1 delete
09:24:27 60.371013 29.556305 6 65 0 217.81123352051 44 1 delete
09:24:13 60.371022 29.556281 16 81 0 217.81123352051 44 1 delete
09:24:00 60.371062 29.556280 8 83 0 137.7544708252 44 1 delete
09:23:47 60.371071 29.556286 12 71 0 312.91320800781 44 1 delete
09:23:34 60.371050 29.556297 8 80 0 312.91320800781 44 1 delete
09:23:21 60.370989 29.556305 12 81 0 312.91320800781 44 1 delete
09:23:07 60.371001 29.556325 8 98 0 217.73466491699 44 1 delete
09:23:06 60.371005 29.556323 12 96 0.086515083909035 217.73466491699 44 1 delete
09:22:55 60.371054 29.556429 8 94 0 137.25689697266 44 1 delete
09:22:44 60.371051 29.556378 12 77 0 9.1440420150757 44 1 delete
09:22:42 60.371047 29.556353 8 77 0 9.1440420150757 44 1 delete
09:22:29 60.371014 29.556296 16 67 0 223.74067687988 44 1 delete
09:22:20 60.371010 29.556321 24 65 0 83.693237304688 44 1 delete
09:22:16 60.371000 29.556290 12 66 0 210.89108276367 44 1 delete
09:22:03 60.370994 29.556268 8 70 0 210.89108276367 44 1 delete
09:21:50 60.370996 29.556252 16 73 0 210.89108276367 44 1 delete
09:21:38 60.371007 29.556249 6 77 0 80.364028930664 44 1 delete
09:21:25 60.371010 29.556234 16 74 0 292.28573608398 44 1 delete
09:21:12 60.370973 29.556219 8 67 0 211.4976348877 44 1 delete
09:20:59 60.370978 29.556256 8 65 0.29551649093628 196.62191772461 44 1 delete
09:20:47 60.370989 29.556314 12 72 0 191.3069152832 44 1 delete
09:20:40 60.371003 29.556333 12 81 0 182.21583557129 44 1 delete